Time;durP1;ratioP1;P1;durP2;ratioP2;P2;SDS_P1;SDS_P2;PMS_P1;PMS_P2;Temp;Humidity;BMP_temperature;BMP_pressure;BME280_temperature;BME280_humidity;BME280_pressure;Samples;Min_cycle;Max_cycle;Signal;HPM_P1;HPM_P2
2023/03/14 00:00:36;;;;;;;8.82;2.95;;;13.30;94.70;;;;;;5073950;28;20383;-71
2023/03/14 00:03:02;;;;;;;8.35;2.58;;;13.30;94.80;;;;;;5083806;28;20024;-72
2023/03/14 00:05:28;;;;;;;9.02;3.83;;;13.30;94.80;;;;;;5076215;28;20019;-72
2023/03/14 00:07:53;;;;;;;6.07;2.40;;;13.30;94.80;;;;;;5088906;28;20809;-72
2023/03/14 00:10:19;;;;;;;9.95;2.80;;;13.30;94.60;;;;;;5081777;28;20023;-71
2023/03/14 00:12:45;;;;;;;7.93;2.05;;;13.20;95.20;;;;;;5088518;28;20452;-72
2023/03/14 00:15:11;;;;;;;10.23;2.58;;;13.20;94.90;;;;;;5079901;28;20097;-72
2023/03/14 00:17:37;;;;;;;10.77;3.17;;;13.30;94.90;;;;;;5089997;28;20506;-72
2023/03/14 00:20:08;;;;;;;11.07;3.17;;;13.20;94.80;;;;;;5074866;28;20024;-72
2023/03/14 00:22:35;;;;;;;11.55;2.88;;;13.20;95.10;;;;;;5079990;28;20039;-71
2023/03/14 00:25:04;;;;;;;8.77;3.33;;;13.20;95.50;;;;;;5072248;28;20078;-72
2023/03/14 00:27:30;;;;;;;9.95;2.92;;;13.10;96.10;;;;;;5073003;28;20530;-70
2023/03/14 00:29:55;;;;;;;11.70;3.50;;;13.00;96.70;;;;;;5074979;28;20024;-70
2023/03/14 00:32:21;;;;;;;6.82;1.90;;;12.90;97.10;;;;;;5090850;28;20031;-71
2023/03/14 00:34:46;;;;;;;8.60;2.80;;;12.80;97.40;;;;;;5086981;28;20024;-71
2023/03/14 00:37:12;;;;;;;5.95;2.35;;;12.70;97.20;;;;;;5071652;28;20024;-71
2023/03/14 00:39:38;;;;;;;12.82;2.38;;;12.60;97.20;;;;;;5081943;28;20031;-71
2023/03/14 00:42:04;;;;;;;6.95;1.90;;;12.50;97.20;;;;;;5091367;28;20035;-72
2023/03/14 00:44:29;;;;;;;9.57;1.92;;;12.50;97.10;;;;;;5082850;28;20038;-73
2023/03/14 00:46:55;;;;;;;6.07;1.60;;;12.50;96.80;;;;;;5084434;28;20024;-72
2023/03/14 00:49:20;;;;;;;4.47;1.50;;;12.40;96.80;;;;;;5085939;28;20539;-72
2023/03/14 00:51:46;;;;;;;8.98;1.95;;;12.30;96.90;;;;;;5081600;28;20020;-73
2023/03/14 00:54:12;;;;;;;7.18;1.63;;;12.30;96.80;;;;;;5089299;28;20491;-72
2023/03/14 00:56:37;;;;;;;8.73;1.73;;;12.20;96.90;;;;;;5079809;28;20109;-72
2023/03/14 00:59:03;;;;;;;5.90;1.85;;;12.20;96.80;;;;;;5072005;28;20522;-71
2023/03/14 01:01:28;;;;;;;9.02;1.88;;;12.10;96.80;;;;;;5081226;28;20081;-72
2023/03/14 01:03:55;;;;;;;8.77;1.80;;;12.10;96.70;;;;;;5070473;28;20039;-71
2023/03/14 01:06:25;;;;;;;9.23;1.90;;;12.10;96.80;;;;;;5073370;28;20539;-72
2023/03/14 01:08:51;;;;;;;5.13;1.63;;;12.10;96.80;;;;;;5090625;28;21040;-72
2023/03/14 01:11:21;;;;;;;11.05;2.42;;;12.10;96.80;;;;;;5077158;28;20024;-71
2023/03/14 01:13:47;;;;;;;9.52;2.42;;;12.00;97.00;;;;;;5089916;28;20027;-72
2023/03/14 01:16:14;;;;;;;10.98;2.10;;;12.00;97.10;;;;;;5077764;28;20028;-72
2023/03/14 01:18:43;;;;;;;8.38;2.30;;;12.00;97.20;;;;;;5089635;28;20038;-72
2023/03/14 01:21:15;;;;;;;7.07;1.80;;;12.00;97.20;;;;;;5080133;28;20111;-71
2023/03/14 01:23:41;;;;;;;7.03;1.67;;;12.00;97.10;;;;;;5087905;28;20047;-72
2023/03/14 01:26:10;;;;;;;7.38;1.63;;;12.00;96.80;;;;;;5082099;28;20490;-72
2023/03/14 01:28:36;;;;;;;11.03;2.47;;;12.00;96.90;;;;;;5086244;28;20027;-72
2023/03/14 01:31:06;;;;;;;10.13;2.63;;;12.00;96.80;;;;;;5082401;28;20021;-72
2023/03/14 01:33:32;;;;;;;6.60;1.85;;;12.00;96.60;;;;;;5082959;28;20470;-72
2023/03/14 01:35:57;;;;;;;10.27;3.10;;;12.00;96.50;;;;;;5085860;28;20027;-72
2023/03/14 01:38:23;;;;;;;10.93;3.03;;;12.00;96.30;;;;;;5078464;28;20032;-72
2023/03/14 01:40:49;;;;;;;14.68;3.40;;;11.90;96.40;;;;;;5069379;28;20526;-72
2023/03/14 01:43:17;;;;;;;11.27;2.55;;;11.90;96.70;;;;;;5081168;28;20433;-71
2023/03/14 01:46:04;;;;;;;10.18;2.30;;;11.90;96.80;;;;;;5071423;28;20047;-72
2023/03/14 01:48:46;;;;;;;9.20;3.55;;;11.80;97.00;;;;;;5079225;28;20035;-71
2023/03/14 01:51:36;;;;;;;9.93;2.35;;;11.90;97.10;;;;;;5076715;28;20371;-72
2023/03/14 01:54:41;;;;;;;12.88;2.80;;;11.90;97.10;;;;;;5082058;28;20032;-71
2023/03/14 01:57:44;;;;;;;13.85;3.28;;;11.70;97.50;;;;;;5064316;28;20032;-72
2023/03/14 02:00:14;;;;;;;13.15;3.55;;;11.60;98.00;;;;;;5056163;28;20116;-72
2023/03/14 02:03:00;;;;;;;12.18;3.72;;;11.50;98.80;;;;;;5077604;28;20105;-72
2023/03/14 02:05:32;;;;;;;14.20;3.50;;;11.40;99.10;;;;;;5069147;28;20502;-72
2023/03/14 02:08:01;;;;;;;15.35;3.15;;;11.40;99.50;;;;;;5072593;28;20129;-71
2023/03/14 02:10:34;;;;;;;17.42;4.60;;;11.30;99.50;;;;;;5088883;28;20502;-72
2023/03/14 02:13:02;;;;;;;20.27;4.50;;;11.20;99.90;;;;;;5076940;28;20020;-72
2023/03/14 02:15:28;;;;;;;19.15;3.85;;;11.10;99.90;;;;;;5087766;28;20031;-72
2023/03/14 02:17:54;;;;;;;14.77;3.88;;;11.00;99.90;;;;;;5079588;28;20036;-72
2023/03/14 02:20:24;;;;;;;13.02;3.90;;;11.00;99.90;;;;;;5084982;28;20062;-71
2023/03/14 02:22:50;;;;;;;10.85;3.25;;;10.90;99.90;;;;;;5084671;28;20032;-71
2023/03/14 02:25:24;;;;;;;20.50;4.60;;;10.90;99.90;;;;;;5074461;28;20024;-71
2023/03/14 02:27:50;;;;;;;17.08;3.47;;;10.80;99.90;;;;;;5074487;28;20020;-72
2023/03/14 02:30:23;;;;;;;16.60;3.78;;;10.80;99.90;;;;;;5076128;28;20401;-71
2023/03/14 02:32:56;;;;;;;10.95;3.42;;;10.80;99.90;;;;;;5083694;28;20027;-72
2023/03/14 02:35:25;;;;;;;11.95;2.65;;;10.80;99.90;;;;;;5076843;28;20114;-71
2023/03/14 02:38:12;;;;;;;12.52;4.00;;;10.80;99.90;;;;;;5071082;28;20425;-72
2023/03/14 02:40:38;;;;;;;12.65;2.97;;;10.80;99.90;;;;;;5076054;28;20033;-71
2023/03/14 02:43:03;;;;;;;15.90;3.58;;;10.80;99.90;;;;;;5068728;28;20024;-72
2023/03/14 02:45:33;;;;;;;16.98;3.30;;;10.80;99.90;;;;;;5077080;28;20024;-72
2023/03/14 02:48:05;;;;;;;13.30;3.40;;;10.70;99.90;;;;;;5085565;28;20029;-72
2023/03/14 02:50:33;;;;;;;12.55;3.10;;;10.70;99.90;;;;;;5070703;28;20158;-71
2023/03/14 02:52:59;;;;;;;17.42;3.28;;;10.70;99.90;;;;;;5070380;28;20028;-71
2023/03/14 02:55:26;;;;;;;12.40;2.80;;;10.80;99.90;;;;;;5082769;28;20035;-71
2023/03/14 02:57:52;;;;;;;6.18;2.70;;;10.80;99.90;;;;;;5088312;28;20029;-71
2023/03/14 03:00:19;;;;;;;17.50;3.55;;;10.80;99.90;;;;;;5072644;28;20443;-71
2023/03/14 03:02:46;;;;;;;13.15;2.78;;;10.90;99.90;;;;;;5073199;28;20831;-71
2023/03/14 03:05:11;;;;;;;14.13;2.53;;;10.90;99.90;;;;;;5081210;28;20024;-71
2023/03/14 03:07:37;;;;;;;10.02;2.40;;;10.90;99.90;;;;;;5068317;28;20610;-71
2023/03/14 03:10:03;;;;;;;9.80;1.98;;;10.90;99.90;;;;;;5080038;28;20582;-72
2023/03/14 03:12:29;;;;;;;10.82;2.72;;;11.00;99.90;;;;;;5068970;28;20399;-72
2023/03/14 03:14:54;;;;;;;13.90;2.50;;;10.90;99.90;;;;;;5077940;28;20032;-72
2023/03/14 03:17:20;;;;;;;11.68;2.40;;;11.00;99.90;;;;;;5071276;28;20481;-71
2023/03/14 03:19:45;;;;;;;11.68;2.63;;;10.90;99.90;;;;;;5074553;28;20028;-71
2023/03/14 03:22:11;;;;;;;8.43;2.10;;;10.90;99.90;;;;;;5074355;28;20032;-71
2023/03/14 03:24:36;;;;;;;6.32;1.88;;;10.90;99.90;;;;;;5071963;28;20043;-71
2023/03/14 03:27:02;;;;;;;11.75;2.40;;;10.90;99.90;;;;;;5078590;28;20016;-72
2023/03/14 03:29:28;;;;;;;7.88;2.33;;;11.00;99.90;;;;;;5083659;28;20028;-71
2023/03/14 03:31:53;;;;;;;11.55;3.47;;;10.90;99.90;;;;;;5079155;28;20132;-72
2023/03/14 03:34:19;;;;;;;9.40;2.40;;;10.90;99.90;;;;;;5069766;28;20028;-72
2023/03/14 03:36:46;;;;;;;10.38;2.40;;;10.90;99.90;;;;;;5082708;28;20032;-72
2023/03/14 03:39:11;;;;;;;18.90;3.10;;;10.90;99.90;;;;;;5072423;28;20036;-71
2023/03/14 03:41:37;;;;;;;10.55;2.65;;;10.80;99.90;;;;;;5084423;28;20021;-72
2023/03/14 03:44:03;;;;;;;10.45;2.33;;;10.90;99.90;;;;;;5071860;28;20091;-71
2023/03/14 03:46:28;;;;;;;8.40;2.33;;;10.90;99.90;;;;;;5084343;28;20115;-72
2023/03/14 03:48:59;;;;;;;15.60;3.25;;;10.90;99.90;;;;;;5070258;28;20032;-72
2023/03/14 03:51:25;;;;;;;15.20;3.22;;;10.80;99.90;;;;;;5075603;28;20760;-72
2023/03/14 03:53:51;;;;;;;15.43;2.58;;;10.90;99.90;;;;;;5091566;28;20099;-71
2023/03/14 03:56:16;;;;;;;13.48;2.33;;;10.90;99.90;;;;;;5086505;28;20032;-71
2023/03/14 03:58:42;;;;;;;16.42;3.40;;;11.00;99.90;;;;;;5074899;28;20037;-72
2023/03/14 04:01:10;;;;;;;12.88;3.03;;;11.00;99.80;;;;;;5076687;28;20028;-72
2023/03/14 04:03:38;;;;;;;15.20;2.95;;;11.00;99.40;;;;;;5075974;28;20056;-72
2023/03/14 04:06:07;;;;;;;10.52;3.50;;;11.00;99.60;;;;;;5076103;28;20491;-72
2023/03/14 04:08:32;;;;;;;16.50;3.28;;;11.00;99.60;;;;;;5078707;28;20048;-73
2023/03/14 04:10:59;;;;;;;18.38;3.65;;;11.00;99.20;;;;;;5073685;28;20032;-73
2023/03/14 04:13:26;;;;;;;15.70;3.35;;;11.00;99.30;;;;;;5080100;28;20483;-72
2023/03/14 04:15:52;;;;;;;18.52;4.65;;;11.00;99.20;;;;;;5071676;28;20489;-72
2023/03/14 04:18:18;;;;;;;13.10;3.22;;;11.10;99.20;;;;;;5082329;28;20036;-73
2023/03/14 04:20:44;;;;;;;14.38;2.58;;;11.10;99.20;;;;;;5073315;28;20131;-72
2023/03/14 04:23:10;;;;;;;13.38;3.53;;;11.00;99.00;;;;;;5082665;28;20064;-72
2023/03/14 04:25:36;;;;;;;11.15;3.25;;;11.00;99.10;;;;;;5070916;28;20638;-72
2023/03/14 04:28:03;;;;;;;13.75;2.88;;;11.00;99.00;;;;;;5078980;28;20020;-73
2023/03/14 04:30:29;;;;;;;12.23;2.60;;;11.10;98.90;;;;;;5091221;28;20042;-72
2023/03/14 04:32:55;;;;;;;12.30;2.75;;;11.10;98.80;;;;;;5078192;28;20078;-71
2023/03/14 04:35:21;;;;;;;7.07;2.60;;;11.10;98.80;;;;;;5090914;28;20024;-72
2023/03/14 04:37:48;;;;;;;12.90;3.58;;;11.10;98.80;;;;;;5086737;28;20038;-71
2023/03/14 04:40:15;;;;;;;13.30;2.95;;;11.20;98.80;;;;;;5072780;28;20218;-73
2023/03/14 04:42:40;;;;;;;14.32;3.40;;;11.20;98.70;;;;;;5079177;28;20020;-72
2023/03/14 04:45:07;;;;;;;11.00;2.42;;;11.20;98.40;;;;;;5075029;28;20017;-71
2023/03/14 04:47:33;;;;;;;11.93;2.40;;;11.20;98.40;;;;;;5075939;28;20020;-71
2023/03/14 04:49:58;;;;;;;9.95;2.45;;;11.20;98.40;;;;;;5077735;28;20021;-71
2023/03/14 04:52:24;;;;;;;14.38;2.63;;;11.20;98.20;;;;;;5082057;28;20036;-72
2023/03/14 04:54:50;;;;;;;11.02;2.03;;;11.30;98.00;;;;;;5081320;28;20020;-72
2023/03/14 04:57:15;;;;;;;9.98;1.90;;;11.30;98.40;;;;;;5089102;28;20024;-73
2023/03/14 04:59:41;;;;;;;10.52;2.13;;;11.30;98.00;;;;;;5079765;28;20035;-73
2023/03/14 05:02:06;;;;;;;12.10;2.15;;;11.30;98.20;;;;;;5080996;28;20024;-71
2023/03/14 05:04:33;;;;;;;8.50;1.83;;;11.30;97.90;;;;;;5073426;28;20024;-74
2023/03/14 05:06:59;;;;;;;11.35;2.17;;;11.30;98.00;;;;;;5070306;28;20063;-72
2023/03/14 05:09:25;;;;;;;11.55;2.28;;;11.30;98.30;;;;;;5082191;28;20079;-71
2023/03/14 05:11:50;;;;;;;8.25;1.83;;;11.30;98.20;;;;;;5070401;28;20100;-73
2023/03/14 05:14:16;;;;;;;8.98;2.03;;;11.30;98.40;;;;;;5082306;28;20034;-72
2023/03/14 05:16:41;;;;;;;10.55;2.38;;;11.20;98.50;;;;;;5070599;28;20514;-72
2023/03/14 05:19:07;;;;;;;11.23;1.90;;;11.20;98.30;;;;;;5079359;28;20040;-72
2023/03/14 05:21:33;;;;;;;6.72;1.35;;;11.20;98.40;;;;;;5071111;28;20056;-73
2023/03/14 05:23:58;;;;;;;12.10;2.85;;;11.20;98.50;;;;;;5080624;28;20098;-71
2023/03/14 05:26:24;;;;;;;6.68;1.45;;;11.20;98.40;;;;;;5075203;28;20036;-72
2023/03/14 05:28:50;;;;;;;5.60;1.40;;;11.20;98.50;;;;;;5074689;28;20031;-73
2023/03/14 05:31:15;;;;;;;7.10;1.70;;;11.20;98.40;;;;;;5077723;28;20020;-72
2023/03/14 05:33:41;;;;;;;8.63;1.90;;;11.10;98.70;;;;;;5072414;28;20050;-72
2023/03/14 05:36:07;;;;;;;7.22;1.80;;;11.10;98.90;;;;;;5080122;28;20399;-72
2023/03/14 05:38:33;;;;;;;7.50;1.60;;;11.10;99.00;;;;;;5070965;28;20390;-73
2023/03/14 05:40:58;;;;;;;6.07;1.45;;;11.10;99.00;;;;;;5088296;28;20020;-73
2023/03/14 05:43:24;;;;;;;8.23;1.80;;;11.10;99.00;;;;;;5088816;28;20124;-72
2023/03/14 05:45:50;;;;;;;8.25;1.65;;;11.10;99.10;;;;;;5076552;28;20534;-72
2023/03/14 05:48:16;;;;;;;9.13;1.92;;;11.10;99.10;;;;;;5089959;28;20024;-73
2023/03/14 05:50:42;;;;;;;6.00;1.52;;;11.00;99.40;;;;;;5079391;28;20024;-74
2023/03/14 05:53:08;;;;;;;12.52;2.17;;;11.00;99.70;;;;;;5069398;28;20434;-72
2023/03/14 05:55:33;;;;;;;7.47;1.42;;;11.00;99.70;;;;;;5081046;28;20028;-72
2023/03/14 05:57:59;;;;;;;7.20;2.28;;;11.00;99.50;;;;;;5070097;28;20029;-71
2023/03/14 06:00:24;;;;;;;7.43;1.88;;;11.00;99.50;;;;;;5078995;28;20032;-71
2023/03/14 06:02:50;;;;;;;9.75;1.50;;;11.00;99.50;;;;;;5088433;28;20476;-72
2023/03/14 06:05:16;;;;;;;7.78;1.80;;;11.00;99.90;;;;;;5083897;28;20035;-72
2023/03/14 06:07:41;;;;;;;7.40;1.90;;;11.00;99.60;;;;;;5089157;28;20031;-72
2023/03/14 06:10:07;;;;;;;11.45;1.80;;;10.90;99.90;;;;;;5084528;28;20032;-72
2023/03/14 06:12:33;;;;;;;5.57;1.90;;;10.90;99.90;;;;;;5081303;28;20016;-72
2023/03/14 06:14:59;;;;;;;5.18;1.73;;;10.90;99.90;;;;;;5087953;28;20051;-71
2023/03/14 06:17:24;;;;;;;8.70;2.17;;;10.90;99.90;;;;;;5078131;28;20024;-72
2023/03/14 06:19:50;;;;;;;7.13;2.45;;;10.90;99.90;;;;;;5080479;28;20078;-72
2023/03/14 06:22:16;;;;;;;9.65;2.42;;;11.00;99.90;;;;;;5082725;28;20459;-72
2023/03/14 06:24:41;;;;;;;6.80;2.22;;;10.90;99.90;;;;;;5069187;28;20024;-72
2023/03/14 06:27:07;;;;;;;10.40;2.85;;;10.90;99.90;;;;;;5079996;28;20476;-72
2023/03/14 06:29:33;;;;;;;3.83;1.38;;;10.90;99.90;;;;;;5069387;28;20039;-72
2023/03/14 06:31:58;;;;;;;10.13;2.90;;;10.80;99.90;;;;;;5081498;28;20028;-71
2023/03/14 06:34:24;;;;;;;11.82;3.03;;;10.90;99.90;;;;;;5068078;28;20368;-72
2023/03/14 06:36:49;;;;;;;9.38;3.22;;;10.80;99.90;;;;;;5078840;28;20031;-73
2023/03/14 06:39:15;;;;;;;7.00;3.15;;;10.80;99.90;;;;;;5069916;28;20051;-71
2023/03/14 06:41:41;;;;;;;6.70;2.67;;;10.80;99.90;;;;;;5076989;28;20382;-72
2023/03/14 06:44:06;;;;;;;10.20;3.70;;;10.70;99.90;;;;;;5072074;28;20471;-71
2023/03/14 06:46:32;;;;;;;9.57;3.55;;;10.70;99.90;;;;;;5086328;28;20104;-72
2023/03/14 06:48:57;;;;;;;10.52;3.78;;;10.80;99.90;;;;;;5087081;28;20498;-70
2023/03/14 06:51:23;;;;;;;12.32;3.70;;;10.80;99.90;;;;;;5082594;28;20107;-72
2023/03/14 06:53:49;;;;;;;11.00;3.92;;;10.80;99.90;;;;;;5077167;28;20029;-70
2023/03/14 06:56:14;;;;;;;8.90;2.70;;;10.80;99.90;;;;;;5069934;28;20017;-73
2023/03/14 06:58:40;;;;;;;9.27;3.35;;;10.80;99.90;;;;;;5079755;28;20051;-72
2023/03/14 07:01:06;;;;;;;8.57;3.45;;;10.80;99.90;;;;;;5068615;28;20140;-71
2023/03/14 07:03:31;;;;;;;9.95;4.82;;;10.80;99.90;;;;;;5077228;28;20522;-71
2023/03/14 07:05:57;;;;;;;10.85;3.88;;;10.80;99.90;;;;;;5088980;28;20741;-71
2023/03/14 07:08:22;;;;;;;9.98;4.30;;;10.90;99.90;;;;;;5075461;28;20562;-72
2023/03/14 07:10:48;;;;;;;8.05;3.58;;;10.80;99.90;;;;;;5088964;28;20103;-71
2023/03/14 07:13:14;;;;;;;11.07;4.90;;;10.80;99.90;;;;;;5079203;28;20036;-71
2023/03/14 07:15:39;;;;;;;10.35;4.10;;;10.90;99.90;;;;;;5092685;28;20110;-71
2023/03/14 07:18:05;;;;;;;9.40;4.82;;;10.80;99.90;;;;;;5081799;28;20086;-71
2023/03/14 07:20:32;;;;;;;9.75;4.35;;;10.90;99.90;;;;;;5087693;28;20031;-71
2023/03/14 07:22:59;;;;;;;10.82;5.35;;;11.00;99.90;;;;;;5083811;28;20017;-72
2023/03/14 07:25:25;;;;;;;11.10;5.40;;;10.90;99.90;;;;;;5078275;28;20029;-71
2023/03/14 07:27:51;;;;;;;11.68;3.58;;;10.90;99.90;;;;;;5084979;28;20108;-72
2023/03/14 07:30:17;;;;;;;10.77;4.32;;;10.90;99.90;;;;;;5084429;28;20099;-72
2023/03/14 07:32:42;;;;;;;9.40;3.75;;;10.90;99.90;;;;;;5075034;28;20017;-72
2023/03/14 07:35:09;;;;;;;5.60;3.17;;;10.90;99.90;;;;;;5084500;28;20034;-72
2023/03/14 07:37:34;;;;;;;6.88;2.95;;;10.90;99.90;;;;;;5076250;28;20471;-71
2023/03/14 07:40:00;;;;;;;5.68;2.85;;;10.90;99.90;;;;;;5083222;28;20035;-70
2023/03/14 07:42:26;;;;;;;8.77;2.90;;;10.80;99.90;;;;;;5083673;28;20519;-73
2023/03/14 07:44:51;;;;;;;6.32;1.95;;;10.80;99.90;;;;;;5085058;28;20036;-72
2023/03/14 07:47:17;;;;;;;4.72;2.03;;;10.70;99.90;;;;;;5083003;28;20016;-72
2023/03/14 07:49:43;;;;;;;4.20;1.45;;;10.70;99.90;;;;;;5082703;28;20024;-73
2023/03/14 07:52:08;;;;;;;5.60;1.58;;;10.70;99.90;;;;;;5075769;28;20035;-72
2023/03/14 07:54:34;;;;;;;4.43;1.40;;;10.60;99.90;;;;;;5076070;28;20028;-72
2023/03/14 07:57:00;;;;;;;5.80;1.40;;;10.60;99.90;;;;;;5079627;28;20043;-72
2023/03/14 07:59:27;;;;;;;6.70;1.60;;;10.60;99.90;;;;;;5081137;28;20048;-72
2023/03/14 08:01:54;;;;;;;2.05;0.90;;;10.50;99.90;;;;;;5087883;28;20099;-71
2023/03/14 08:04:20;;;;;;;3.30;0.93;;;10.40;99.90;;;;;;5081389;28;20027;-73
2023/03/14 08:06:45;;;;;;;3.13;1.00;;;10.30;99.90;;;;;;5078140;28;20032;-72
2023/03/14 08:09:11;;;;;;;2.47;1.08;;;10.30;99.90;;;;;;5081363;28;20044;-72
2023/03/14 08:11:36;;;;;;;4.50;1.20;;;10.20;99.90;;;;;;5088599;28;20095;-74
2023/03/14 08:14:02;;;;;;;5.25;0.90;;;10.20;99.90;;;;;;5085440;28;20066;-71
2023/03/14 08:16:34;;;;;;;5.38;1.40;;;10.20;99.90;;;;;;5076967;28;20028;-72
2023/03/14 08:19:00;;;;;;;3.72;1.00;;;10.10;99.90;;;;;;5075845;28;20090;-72
2023/03/14 08:21:27;;;;;;;4.15;1.20;;;10.00;99.90;;;;;;5072513;28;20024;-70
2023/03/14 08:23:52;;;;;;;2.30;1.10;;;10.00;99.90;;;;;;5079904;28;20122;-71
2023/03/14 08:26:20;;;;;;;3.28;1.33;;;10.00;99.90;;;;;;5086564;28;21058;-71
2023/03/14 08:28:46;;;;;;;2.78;1.00;;;10.00;99.90;;;;;;5076373;28;20032;-71
2023/03/14 08:31:11;;;;;;;6.43;1.20;;;10.00;99.90;;;;;;5081303;28;20027;-71
2023/03/14 08:33:37;;;;;;;3.22;1.00;;;9.90;99.90;;;;;;5076201;28;20032;-71
2023/03/14 08:36:03;;;;;;;4.55;1.00;;;9.90;99.90;;;;;;5081240;28;20012;-71
2023/03/14 08:38:29;;;;;;;2.78;1.30;;;9.90;99.90;;;;;;5088801;28;20081;-71
2023/03/14 08:41:02;;;;;;;3.63;1.23;;;9.90;99.90;;;;;;5076978;28;20028;-71
2023/03/14 08:43:28;;;;;;;4.72;1.05;;;9.90;99.90;;;;;;5077381;28;20077;-73
2023/03/14 08:45:57;;;;;;;10.57;1.70;;;9.80;99.90;;;;;;5078776;28;20095;-72
2023/03/14 08:48:23;;;;;;;7.82;1.02;;;9.70;99.60;;;;;;5072497;28;20051;-72
2023/03/14 08:50:48;;;;;;;9.82;1.55;;;9.60;99.60;;;;;;5077314;28;20478;-73
2023/03/14 08:53:14;;;;;;;5.85;1.08;;;9.60;99.60;;;;;;5082604;28;20051;-73
2023/03/14 08:55:40;;;;;;;6.43;1.35;;;9.60;99.60;;;;;;5084676;28;20065;-72
2023/03/14 08:58:07;;;;;;;8.85;1.48;;;9.50;99.40;;;;;;5082879;28;20867;-72
2023/03/14 09:00:32;;;;;;;5.45;0.93;;;9.50;99.60;;;;;;5085555;28;20028;-72
2023/03/14 09:03:00;;;;;;;4.57;1.10;;;9.50;99.90;;;;;;5076574;28;20035;-73
2023/03/14 09:05:25;;;;;;;3.65;0.90;;;9.50;99.90;;;;;;5070054;28;20067;-72
2023/03/14 09:07:51;;;;;;;6.72;1.35;;;9.40;99.90;;;;;;5076173;28;20074;-72
2023/03/14 09:10:17;;;;;;;9.77;1.23;;;9.40;99.90;;;;;;5081193;28;20024;-73
2023/03/14 09:12:42;;;;;;;8.13;1.25;;;9.40;99.80;;;;;;5077777;28;20489;-72
2023/03/14 09:15:08;;;;;;;5.07;1.30;;;9.40;99.90;;;;;;5084409;28;20031;-72
2023/03/14 09:17:34;;;;;;;8.25;1.25;;;9.40;99.90;;;;;;5080080;28;20063;-72
2023/03/14 09:20:00;;;;;;;5.70;0.90;;;9.40;99.60;;;;;;5082674;28;20553;-72
2023/03/14 09:22:25;;;;;;;5.35;1.35;;;9.40;99.30;;;;;;5081268;28;20016;-72
2023/03/14 09:24:51;;;;;;;5.88;1.20;;;9.40;99.30;;;;;;5076020;28;20143;-73
2023/03/14 09:27:17;;;;;;;5.35;1.20;;;9.40;99.50;;;;;;5078705;28;20027;-72
2023/03/14 09:29:42;;;;;;;5.57;0.90;;;9.40;98.90;;;;;;5082435;28;20072;-72
2023/03/14 09:32:08;;;;;;;7.88;1.00;;;9.40;98.70;;;;;;5072951;28;20024;-72
2023/03/14 09:34:35;;;;;;;4.38;0.90;;;9.40;99.50;;;;;;5071699;28;20028;-72
2023/03/14 09:37:00;;;;;;;5.68;0.90;;;9.60;98.90;;;;;;5076958;28;20051;-73
2023/03/14 09:39:26;;;;;;;4.68;0.75;;;10.00;98.60;;;;;;5085170;28;20569;-73
2023/03/14 09:41:55;;;;;;;4.05;0.70;;;10.10;97.40;;;;;;5081944;28;20471;-72
2023/03/14 09:44:30;;;;;;;7.43;1.05;;;10.20;98.70;;;;;;5085527;28;20051;-74
2023/03/14 09:47:00;;;;;;;2.60;0.75;;;10.30;98.20;;;;;;5077008;28;20115;-73
2023/03/14 09:49:32;;;;;;;4.35;1.08;;;10.40;99.20;;;;;;5083342;28;20035;-73
2023/03/14 09:52:12;;;;;;;3.83;0.60;;;10.30;98.10;;;;;;5081973;28;20060;-73
2023/03/14 09:54:51;;;;;;;5.47;1.25;;;10.20;97.10;;;;;;5079851;28;20028;-74
2023/03/14 09:57:36;;;;;;;4.30;0.90;;;10.10;98.00;;;;;;5076305;28;20032;-74
2023/03/14 10:00:16;;;;;;;5.50;1.05;;;10.10;97.50;;;;;;5072951;28;20032;-74
2023/03/14 10:02:47;;;;;;;9.23;1.60;;;10.10;97.20;;;;;;5080527;28;20032;-73
2023/03/14 10:05:18;;;;;;;5.20;1.38;;;10.10;97.20;;;;;;5079156;28;20028;-74
2023/03/14 10:07:44;;;;;;;10.02;1.30;;;10.10;97.60;;;;;;5082448;28;20032;-74
2023/03/14 10:10:21;;;;;;;5.72;1.42;;;10.10;96.80;;;;;;5082400;28;20029;-74
2023/03/14 10:13:09;;;;;;;7.65;1.13;;;10.20;96.50;;;;;;5078953;28;20032;-74
2023/03/14 10:15:36;;;;;;;5.15;1.48;;;10.20;97.00;;;;;;5075918;28;20078;-73
2023/03/14 10:18:03;;;;;;;9.63;1.42;;;10.40;97.20;;;;;;5070988;28;20043;-73
2023/03/14 10:20:35;;;;;;;13.23;2.05;;;10.50;97.50;;;;;;5082395;28;20530;-74
2023/03/14 10:23:06;;;;;;;10.60;1.60;;;10.50;96.80;;;;;;5072068;28;20016;-73
2023/03/14 10:25:35;;;;;;;12.20;2.78;;;10.50;96.30;;;;;;5082395;28;20151;-74
2023/03/14 10:28:02;;;;;;;11.85;1.70;;;10.50;95.90;;;;;;5074122;28;20023;-73
2023/03/14 10:30:28;;;;;;;5.60;1.10;;;10.40;95.00;;;;;;5075287;28;20407;-72
2023/03/14 10:32:55;;;;;;;18.88;2.80;;;10.50;97.50;;;;;;5076023;28;20035;-73
2023/03/14 10:35:22;;;;;;;19.20;3.25;;;10.50;96.20;;;;;;5070347;28;20557;-73
2023/03/14 10:38:01;;;;;;;7.78;1.67;;;10.50;95.80;;;;;;5068865;28;20024;-73
2023/03/14 10:40:54;;;;;;;8.50;1.60;;;10.50;95.70;;;;;;5078968;28;20036;-72
2023/03/14 10:43:26;;;;;;;12.50;2.42;;;10.60;98.10;;;;;;5071471;28;20040;-73
2023/03/14 10:46:09;;;;;;;13.45;3.03;;;10.60;97.40;;;;;;5098773;28;20016;-73
2023/03/14 10:48:37;;;;;;;11.52;2.28;;;10.50;96.60;;;;;;5082093;28;20028;-71
2023/03/14 10:51:11;;;;;;;18.23;2.70;;;10.60;98.40;;;;;;5087400;28;20012;-72
2023/03/14 10:53:56;;;;;;;9.20;2.25;;;10.60;97.80;;;;;;5084193;28;20012;-72
2023/03/14 10:56:25;;;;;;;8.90;1.48;;;10.40;97.70;;;;;;5096324;28;20031;-73
2023/03/14 10:58:55;;;;;;;12.05;2.22;;;10.50;99.30;;;;;;5078892;28;20040;-72
2023/03/14 11:01:24;;;;;;;;;;;10.50;98.00;;;;;;5081376;28;20017;-72
2023/03/14 11:03:59;;;;;;;7.50;2.03;;;10.40;98.60;;;;;;5076195;28;19926;-71
2023/03/14 11:06:43;;;;;;;10.80;2.15;;;10.20;97.60;;;;;;5085247;28;20029;-72
2023/03/14 11:09:20;;;;;;;13.65;2.10;;;10.10;98.90;;;;;;5085934;28;20526;-72
2023/03/14 11:11:47;;;;;;;12.15;2.22;;;10.00;98.60;;;;;;5084956;28;20021;-73
2023/03/14 11:14:26;;;;;;;20.30;5.65;;;9.80;97.70;;;;;;5092323;28;20028;-72
2023/03/14 11:16:53;;;;;;;9.02;2.00;;;9.80;97.50;;;;;;5082020;28;20024;-72
2023/03/14 11:19:48;;;;;;;10.63;2.38;;;10.00;99.90;;;;;;5077899;28;20070;-73
2023/03/14 11:22:13;;;;;;;21.20;4.18;;;10.00;99.50;;;;;;5000450;28;20042;-73
2023/03/14 11:25:05;;;;;;;15.35;3.70;;;10.00;97.30;;;;;;5083042;28;20028;-73
2023/03/14 11:27:45;;;;;;;14.25;3.00;;;10.20;97.80;;;;;;5083632;28;20035;-72
2023/03/14 11:30:23;;;;;;;13.48;2.50;;;10.30;97.90;;;;;;5079560;28;20020;-72
2023/03/14 11:33:05;;;;;;;15.00;2.78;;;10.50;98.50;;;;;;5092520;28;20020;-73
2023/03/14 11:35:38;;;;;;;9.82;2.30;;;10.40;98.50;;;;;;5092255;28;20028;-71
2023/03/14 11:38:34;;;;;;;17.00;3.20;;;10.20;99.60;;;;;;5093189;28;20081;-72
2023/03/14 11:41:01;;;;;;;13.15;3.40;;;9.90;97.30;;;;;;5093039;28;20016;-71
2023/03/14 11:43:30;;;;;;;17.75;4.13;;;10.20;99.90;;;;;;5089680;28;20017;-72
2023/03/14 11:46:09;;;;;;;20.60;3.55;;;10.20;96.60;;;;;;5075403;28;20036;-73
2023/03/14 11:48:58;;;;;;;25.05;6.47;;;10.30;96.30;;;;;;5080132;28;20021;-73
2023/03/14 11:51:29;;;;;;;20.05;5.15;;;10.40;94.70;;;;;;5077009;28;20054;-72
2023/03/14 11:54:11;;;;;;;13.98;3.45;;;10.60;96.30;;;;;;5079624;28;20040;-72
2023/03/14 11:56:50;;;;;;;16.08;3.42;;;10.80;96.30;;;;;;5076299;28;20035;-73
2023/03/14 11:59:27;;;;;;;16.13;3.83;;;11.10;94.70;;;;;;5079667;28;20024;-71
2023/03/14 12:02:22;;;;;;;17.83;3.88;;;11.60;94.60;;;;;;5087485;28;20040;-73
2023/03/14 12:04:57;;;;;;;12.88;2.97;;;11.90;91.00;;;;;;5084561;28;20039;-73
2023/03/14 12:07:34;;;;;;;24.10;4.35;;;12.20;91.60;;;;;;5078538;28;20016;-73
2023/03/14 12:09:59;;;;;;;16.70;3.67;;;12.20;81.50;;;;;;5081937;28;20497;-72
2023/03/14 12:12:29;;;;;;;20.23;3.53;;;12.30;81.80;;;;;;5077454;28;20016;-74
2023/03/14 12:15:02;;;;;;;17.65;4.25;;;12.20;77.70;;;;;;5082957;28;20500;-72
2023/03/14 12:17:43;;;;;;;9.57;3.00;;;12.40;88.00;;;;;;5086811;28;20028;-72
2023/03/14 12:20:14;;;;;;;;;;;12.60;87.80;;;;;;5077363;28;20131;-72
2023/03/14 12:22:46;;;;;;;18.30;2.80;;;12.80;81.90;;;;;;5079558;28;19994;-72
2023/03/14 12:25:21;;;;;;;7.15;2.15;;;13.10;83.10;;;;;;5080868;28;20086;-73
2023/03/14 12:27:56;;;;;;;13.35;2.75;;;13.30;91.00;;;;;;5083727;28;20089;-72
2023/03/14 12:30:28;;;;;;;14.35;2.95;;;13.40;90.60;;;;;;5077717;28;20029;-71
2023/03/14 12:33:09;;;;;;;11.45;2.33;;;13.30;73.40;;;;;;5073094;28;20027;-72
2023/03/14 12:35:43;;;;;;;11.48;2.28;;;13.20;86.90;;;;;;5074289;28;20107;-73
2023/03/14 12:38:41;;;;;;;9.93;2.03;;;13.20;70.60;;;;;;5074815;28;20032;-73
2023/03/14 12:41:40;;;;;;;8.70;1.70;;;13.20;90.30;;;;;;5070658;28;20048;-72
2023/03/14 12:44:40;;;;;;;10.02;2.05;;;13.00;81.50;;;;;;5063686;28;20032;-72
2023/03/14 12:47:34;;;;;;;12.48;3.17;;;13.30;94.50;;;;;;5043448;28;20101;-72
2023/03/14 12:50:12;;;;;;;10.73;2.17;;;13.30;74.40;;;;;;5076944;28;20056;-73
2023/03/14 12:52:59;;;;;;;10.43;2.20;;;13.20;74.00;;;;;;5090896;28;20054;-74